sensor_id;sensor_type;location;lat;lon;timestamp;P1;durP1;ratioP1;P2;durP2;ratioP2
51792;SDS011;37850;53.178;6.376;2023-12-20T00:01:25;9.60;;;1.58;;
51792;SDS011;37850;53.178;6.376;2023-12-20T00:03:51;14.00;;;1.75;;
51792;SDS011;37850;53.178;6.376;2023-12-20T00:06:16;21.27;;;2.50;;
51792;SDS011;37850;53.178;6.376;2023-12-20T00:08:42;15.43;;;2.15;;
51792;SDS011;37850;53.178;6.376;2023-12-20T00:11:09;18.88;;;2.53;;
51792;SDS011;37850;53.178;6.376;2023-12-20T00:13:34;17.83;;;2.05;;
51792;SDS011;37850;53.178;6.376;2023-12-20T00:16:00;17.80;;;2.22;;
51792;SDS011;37850;53.178;6.376;2023-12-20T00:18:26;17.90;;;2.30;;
51792;SDS011;37850;53.178;6.376;2023-12-20T00:20:52;11.75;;;2.13;;
51792;SDS011;37850;53.178;6.376;2023-12-20T00:23:17;14.50;;;1.98;;
51792;SDS011;37850;53.178;6.376;2023-12-20T00:25:43;16.40;;;2.33;;
51792;SDS011;37850;53.178;6.376;2023-12-20T00:28:09;15.65;;;2.15;;
51792;SDS011;37850;53.178;6.376;2023-12-20T00:30:34;21.75;;;2.00;;
51792;SDS011;37850;53.178;6.376;2023-12-20T00:33:01;16.05;;;2.22;;
51792;SDS011;37850;53.178;6.376;2023-12-20T00:35:27;14.13;;;1.90;;
51792;SDS011;37850;53.178;6.376;2023-12-20T00:37:53;21.50;;;2.10;;
51792;SDS011;37850;53.178;6.376;2023-12-20T00:40:19;16.83;;;2.47;;
51792;SDS011;37850;53.178;6.376;2023-12-20T00:42:45;18.40;;;2.42;;
51792;SDS011;37850;53.178;6.376;2023-12-20T00:45:12;12.20;;;1.38;;
51792;SDS011;37850;53.178;6.376;2023-12-20T00:47:38;20.92;;;2.33;;
51792;SDS011;37850;53.178;6.376;2023-12-20T00:50:04;16.10;;;2.08;;
51792;SDS011;37850;53.178;6.376;2023-12-20T00:52:30;21.90;;;2.42;;
51792;SDS011;37850;53.178;6.376;2023-12-20T00:54:55;15.25;;;2.00;;
51792;SDS011;37850;53.178;6.376;2023-12-20T00:57:21;16.13;;;1.65;;
51792;SDS011;37850;53.178;6.376;2023-12-20T00:59:47;15.13;;;1.85;;
51792;SDS011;37850;53.178;6.376;2023-12-20T01:02:12;21.48;;;3.50;;
51792;SDS011;37850;53.178;6.376;2023-12-20T01:04:38;16.80;;;2.05;;
51792;SDS011;37850;53.178;6.376;2023-12-20T01:07:04;12.38;;;2.00;;
51792;SDS011;37850;53.178;6.376;2023-12-20T01:09:29;20.30;;;2.70;;
51792;SDS011;37850;53.178;6.376;2023-12-20T01:11:55;21.77;;;2.22;;
51792;SDS011;37850;53.178;6.376;2023-12-20T01:14:21;19.42;;;2.53;;
51792;SDS011;37850;53.178;6.376;2023-12-20T01:16:47;21.45;;;2.60;;
51792;SDS011;37850;53.178;6.376;2023-12-20T01:19:13;20.35;;;2.17;;
51792;SDS011;37850;53.178;6.376;2023-12-20T01:21:39;26.17;;;3.30;;
51792;SDS011;37850;53.178;6.376;2023-12-20T01:24:05;18.15;;;3.80;;
51792;SDS011;37850;53.178;6.376;2023-12-20T01:26:31;16.02;;;2.22;;
51792;SDS011;37850;53.178;6.376;2023-12-20T01:28:57;18.35;;;2.42;;
51792;SDS011;37850;53.178;6.376;2023-12-20T01:31:22;19.58;;;3.08;;
51792;SDS011;37850;53.178;6.376;2023-12-20T01:33:48;21.27;;;3.35;;
51792;SDS011;37850;53.178;6.376;2023-12-20T01:36:14;13.48;;;2.47;;
51792;SDS011;37850;53.178;6.376;2023-12-20T01:38:39;23.95;;;3.28;;
51792;SDS011;37850;53.178;6.376;2023-12-20T01:41:05;15.57;;;2.35;;
51792;SDS011;37850;53.178;6.376;2023-12-20T01:43:31;17.25;;;2.67;;
51792;SDS011;37850;53.178;6.376;2023-12-20T01:45:57;14.50;;;2.03;;
51792;SDS011;37850;53.178;6.376;2023-12-20T01:48:23;15.43;;;2.10;;
51792;SDS011;37850;53.178;6.376;2023-12-20T01:50:52;13.43;;;1.88;;
51792;SDS011;37850;53.178;6.376;2023-12-20T01:53:19;12.77;;;2.13;;
51792;SDS011;37850;53.178;6.376;2023-12-20T01:55:49;14.98;;;2.00;;
51792;SDS011;37850;53.178;6.376;2023-12-20T01:58:17;16.80;;;2.00;;
51792;SDS011;37850;53.178;6.376;2023-12-20T02:00:43;18.67;;;2.42;;
51792;SDS011;37850;53.178;6.376;2023-12-20T02:03:09;25.23;;;2.85;;
51792;SDS011;37850;53.178;6.376;2023-12-20T02:05:36;19.25;;;2.50;;
51792;SDS011;37850;53.178;6.376;2023-12-20T02:08:04;21.75;;;3.45;;
51792;SDS011;37850;53.178;6.376;2023-12-20T02:10:30;21.00;;;3.03;;
51792;SDS011;37850;53.178;6.376;2023-12-20T02:12:57;23.25;;;3.35;;
51792;SDS011;37850;53.178;6.376;2023-12-20T02:15:23;25.80;;;3.42;;
51792;SDS011;37850;53.178;6.376;2023-12-20T02:17:48;30.92;;;4.88;;
51792;SDS011;37850;53.178;6.376;2023-12-20T02:20:14;24.45;;;4.30;;
51792;SDS011;37850;53.178;6.376;2023-12-20T02:22:40;35.95;;;3.85;;
51792;SDS011;37850;53.178;6.376;2023-12-20T02:25:06;24.90;;;3.55;;
51792;SDS011;37850;53.178;6.376;2023-12-20T02:27:32;34.28;;;3.97;;
51792;SDS011;37850;53.178;6.376;2023-12-20T02:29:59;24.60;;;3.45;;
51792;SDS011;37850;53.178;6.376;2023-12-20T02:32:25;29.88;;;3.97;;
51792;SDS011;37850;53.178;6.376;2023-12-20T02:34:54;31.40;;;3.60;;
51792;SDS011;37850;53.178;6.376;2023-12-20T02:37:20;23.50;;;3.78;;
51792;SDS011;37850;53.178;6.376;2023-12-20T02:39:46;31.33;;;4.30;;
51792;SDS011;37850;53.178;6.376;2023-12-20T02:42:12;21.50;;;3.38;;
51792;SDS011;37850;53.178;6.376;2023-12-20T02:44:38;31.55;;;4.13;;
51792;SDS011;37850;53.178;6.376;2023-12-20T02:47:03;33.22;;;3.22;;
51792;SDS011;37850;53.178;6.376;2023-12-20T02:49:29;28.42;;;3.70;;
51792;SDS011;37850;53.178;6.376;2023-12-20T02:51:55;33.80;;;2.92;;
51792;SDS011;37850;53.178;6.376;2023-12-20T02:54:21;21.45;;;3.00;;
51792;SDS011;37850;53.178;6.376;2023-12-20T02:56:47;25.98;;;3.65;;
51792;SDS011;37850;53.178;6.376;2023-12-20T02:59:13;29.83;;;4.00;;
51792;SDS011;37850;53.178;6.376;2023-12-20T03:01:44;30.58;;;3.72;;
51792;SDS011;37850;53.178;6.376;2023-12-20T03:06:36;28.48;;;3.78;;
51792;SDS011;37850;53.178;6.376;2023-12-20T03:09:02;33.42;;;3.88;;
51792;SDS011;37850;53.178;6.376;2023-12-20T03:11:28;28.58;;;3.97;;
51792;SDS011;37850;53.178;6.376;2023-12-20T03:13:54;32.03;;;4.15;;
51792;SDS011;37850;53.178;6.376;2023-12-20T03:16:20;22.85;;;3.45;;
51792;SDS011;37850;53.178;6.376;2023-12-20T03:18:46;25.27;;;4.00;;
51792;SDS011;37850;53.178;6.376;2023-12-20T03:21:12;31.08;;;3.95;;
51792;SDS011;37850;53.178;6.376;2023-12-20T03:23:38;24.98;;;4.40;;
51792;SDS011;37850;53.178;6.376;2023-12-20T03:26:08;25.45;;;3.55;;
51792;SDS011;37850;53.178;6.376;2023-12-20T03:28:35;35.78;;;4.22;;
51792;SDS011;37850;53.178;6.376;2023-12-20T03:31:02;38.53;;;5.43;;
51792;SDS011;37850;53.178;6.376;2023-12-20T03:33:28;22.88;;;3.58;;
51792;SDS011;37850;53.178;6.376;2023-12-20T03:35:54;25.08;;;3.72;;
51792;SDS011;37850;53.178;6.376;2023-12-20T03:38:20;28.17;;;4.07;;
51792;SDS011;37850;53.178;6.376;2023-12-20T03:40:46;22.38;;;3.63;;
51792;SDS011;37850;53.178;6.376;2023-12-20T03:43:12;32.55;;;4.18;;
51792;SDS011;37850;53.178;6.376;2023-12-20T03:45:38;36.33;;;4.35;;
51792;SDS011;37850;53.178;6.376;2023-12-20T03:48:03;25.60;;;3.63;;
51792;SDS011;37850;53.178;6.376;2023-12-20T03:50:30;30.63;;;3.90;;
51792;SDS011;37850;53.178;6.376;2023-12-20T03:52:55;29.80;;;3.85;;
51792;SDS011;37850;53.178;6.376;2023-12-20T03:55:21;35.35;;;4.35;;
51792;SDS011;37850;53.178;6.376;2023-12-20T03:57:47;32.45;;;4.55;;
51792;SDS011;37850;53.178;6.376;2023-12-20T04:00:13;31.15;;;4.40;;
51792;SDS011;37850;53.178;6.376;2023-12-20T04:02:39;31.90;;;3.33;;
51792;SDS011;37850;53.178;6.376;2023-12-20T04:05:06;31.13;;;3.97;;
51792;SDS011;37850;53.178;6.376;2023-12-20T04:07:33;36.75;;;5.30;;
51792;SDS011;37850;53.178;6.376;2023-12-20T04:10:00;33.38;;;4.07;;
51792;SDS011;37850;53.178;6.376;2023-12-20T04:12:26;31.25;;;3.60;;
51792;SDS011;37850;53.178;6.376;2023-12-20T04:14:53;31.98;;;3.80;;
51792;SDS011;37850;53.178;6.376;2023-12-20T04:17:19;32.17;;;4.70;;
51792;SDS011;37850;53.178;6.376;2023-12-20T04:19:47;34.08;;;4.28;;
51792;SDS011;37850;53.178;6.376;2023-12-20T04:22:13;29.00;;;3.30;;
51792;SDS011;37850;53.178;6.376;2023-12-20T04:24:39;26.95;;;3.72;;
51792;SDS011;37850;53.178;6.376;2023-12-20T04:27:07;31.63;;;3.95;;
51792;SDS011;37850;53.178;6.376;2023-12-20T04:29:33;29.63;;;4.40;;
51792;SDS011;37850;53.178;6.376;2023-12-20T04:31:59;28.30;;;3.50;;
51792;SDS011;37850;53.178;6.376;2023-12-20T04:34:25;27.63;;;3.88;;
51792;SDS011;37850;53.178;6.376;2023-12-20T04:36:51;29.98;;;4.00;;
51792;SDS011;37850;53.178;6.376;2023-12-20T04:39:17;32.90;;;4.03;;
51792;SDS011;37850;53.178;6.376;2023-12-20T04:41:43;37.75;;;4.85;;
51792;SDS011;37850;53.178;6.376;2023-12-20T04:44:08;34.20;;;4.60;;
51792;SDS011;37850;53.178;6.376;2023-12-20T04:46:34;20.27;;;3.60;;
51792;SDS011;37850;53.178;6.376;2023-12-20T04:49:00;31.77;;;4.90;;
51792;SDS011;37850;53.178;6.376;2023-12-20T04:51:26;26.98;;;4.15;;
51792;SDS011;37850;53.178;6.376;2023-12-20T04:53:52;28.45;;;3.63;;
51792;SDS011;37850;53.178;6.376;2023-12-20T04:56:18;36.97;;;5.47;;
51792;SDS011;37850;53.178;6.376;2023-12-20T04:58:43;31.95;;;4.07;;
51792;SDS011;37850;53.178;6.376;2023-12-20T05:01:09;28.08;;;4.65;;
51792;SDS011;37850;53.178;6.376;2023-12-20T05:03:35;28.08;;;4.00;;
51792;SDS011;37850;53.178;6.376;2023-12-20T05:06:01;36.38;;;4.45;;
51792;SDS011;37850;53.178;6.376;2023-12-20T05:08:27;35.17;;;4.75;;
51792;SDS011;37850;53.178;6.376;2023-12-20T05:10:53;25.35;;;4.13;;
51792;SDS011;37850;53.178;6.376;2023-12-20T05:13:20;31.13;;;4.55;;
51792;SDS011;37850;53.178;6.376;2023-12-20T05:15:46;34.53;;;4.13;;
51792;SDS011;37850;53.178;6.376;2023-12-20T05:18:12;33.83;;;3.83;;
51792;SDS011;37850;53.178;6.376;2023-12-20T05:20:38;30.50;;;4.20;;
51792;SDS011;37850;53.178;6.376;2023-12-20T05:23:04;30.50;;;4.30;;
51792;SDS011;37850;53.178;6.376;2023-12-20T05:25:30;32.33;;;4.90;;
51792;SDS011;37850;53.178;6.376;2023-12-20T05:27:56;38.03;;;5.93;;
51792;SDS011;37850;53.178;6.376;2023-12-20T05:30:22;30.95;;;4.65;;
51792;SDS011;37850;53.178;6.376;2023-12-20T05:32:47;36.83;;;5.40;;
51792;SDS011;37850;53.178;6.376;2023-12-20T05:35:13;35.17;;;4.20;;
51792;SDS011;37850;53.178;6.376;2023-12-20T05:37:40;34.72;;;5.30;;
51792;SDS011;37850;53.178;6.376;2023-12-20T05:40:06;27.40;;;3.97;;
51792;SDS011;37850;53.178;6.376;2023-12-20T05:42:35;32.13;;;3.95;;
51792;SDS011;37850;53.178;6.376;2023-12-20T05:45:04;33.83;;;4.38;;
51792;SDS011;37850;53.178;6.376;2023-12-20T05:47:31;28.25;;;4.65;;
51792;SDS011;37850;53.178;6.376;2023-12-20T05:49:56;35.92;;;4.55;;
51792;SDS011;37850;53.178;6.376;2023-12-20T05:52:22;34.47;;;4.53;;
51792;SDS011;37850;53.178;6.376;2023-12-20T05:54:48;31.10;;;4.75;;
51792;SDS011;37850;53.178;6.376;2023-12-20T05:57:14;21.00;;;3.42;;
51792;SDS011;37850;53.178;6.376;2023-12-20T05:59:40;26.92;;;4.43;;
51792;SDS011;37850;53.178;6.376;2023-12-20T06:02:05;27.60;;;4.57;;
51792;SDS011;37850;53.178;6.376;2023-12-20T06:04:31;33.10;;;4.70;;
51792;SDS011;37850;53.178;6.376;2023-12-20T06:06:57;25.65;;;3.83;;
51792;SDS011;37850;53.178;6.376;2023-12-20T06:09:24;22.60;;;4.57;;
51792;SDS011;37850;53.178;6.376;2023-12-20T06:11:51;34.47;;;4.53;;
51792;SDS011;37850;53.178;6.376;2023-12-20T06:14:17;27.08;;;4.65;;
51792;SDS011;37850;53.178;6.376;2023-12-20T06:16:43;23.77;;;4.35;;
51792;SDS011;37850;53.178;6.376;2023-12-20T06:19:10;38.17;;;4.65;;
51792;SDS011;37850;53.178;6.376;2023-12-20T06:21:36;33.58;;;4.00;;
51792;SDS011;37850;53.178;6.376;2023-12-20T06:24:01;24.02;;;3.97;;
51792;SDS011;37850;53.178;6.376;2023-12-20T06:26:27;31.10;;;3.65;;
51792;SDS011;37850;53.178;6.376;2023-12-20T06:28:53;38.03;;;4.57;;
51792;SDS011;37850;53.178;6.376;2023-12-20T06:31:19;38.85;;;4.75;;
51792;SDS011;37850;53.178;6.376;2023-12-20T06:33:45;24.25;;;4.30;;
51792;SDS011;37850;53.178;6.376;2023-12-20T06:36:11;29.40;;;4.38;;
51792;SDS011;37850;53.178;6.376;2023-12-20T06:38:38;35.92;;;4.18;;
51792;SDS011;37850;53.178;6.376;2023-12-20T06:41:04;33.03;;;4.90;;
51792;SDS011;37850;53.178;6.376;2023-12-20T06:43:31;28.73;;;3.95;;
51792;SDS011;37850;53.178;6.376;2023-12-20T06:45:57;34.60;;;4.38;;
51792;SDS011;37850;53.178;6.376;2023-12-20T06:48:23;30.83;;;4.30;;
51792;SDS011;37850;53.178;6.376;2023-12-20T06:50:49;26.00;;;3.55;;
51792;SDS011;37850;53.178;6.376;2023-12-20T06:53:15;31.23;;;4.20;;
51792;SDS011;37850;53.178;6.376;2023-12-20T06:55:40;23.73;;;3.50;;
51792;SDS011;37850;53.178;6.376;2023-12-20T06:58:06;32.17;;;3.45;;
51792;SDS011;37850;53.178;6.376;2023-12-20T07:00:32;30.00;;;4.18;;
51792;SDS011;37850;53.178;6.376;2023-12-20T07:02:58;30.92;;;4.22;;
51792;SDS011;37850;53.178;6.376;2023-12-20T07:05:24;23.00;;;3.90;;
51792;SDS011;37850;53.178;6.376;2023-12-20T07:07:50;29.15;;;3.55;;
51792;SDS011;37850;53.178;6.376;2023-12-20T07:10:16;30.98;;;3.95;;
51792;SDS011;37850;53.178;6.376;2023-12-20T07:12:42;36.13;;;4.18;;
51792;SDS011;37850;53.178;6.376;2023-12-20T07:15:08;26.35;;;4.13;;
51792;SDS011;37850;53.178;6.376;2023-12-20T07:17:34;32.00;;;4.65;;
51792;SDS011;37850;53.178;6.376;2023-12-20T07:20:00;26.38;;;3.78;;
51792;SDS011;37850;53.178;6.376;2023-12-20T07:22:32;32.42;;;4.30;;
51792;SDS011;37850;53.178;6.376;2023-12-20T07:24:58;31.27;;;4.60;;
51792;SDS011;37850;53.178;6.376;2023-12-20T07:27:25;29.80;;;3.75;;
51792;SDS011;37850;53.178;6.376;2023-12-20T07:29:51;25.33;;;3.75;;
51792;SDS011;37850;53.178;6.376;2023-12-20T07:32:17;21.73;;;3.28;;
51792;SDS011;37850;53.178;6.376;2023-12-20T07:34:43;27.73;;;4.45;;
51792;SDS011;37850;53.178;6.376;2023-12-20T07:37:08;23.17;;;3.78;;
51792;SDS011;37850;53.178;6.376;2023-12-20T07:39:39;29.95;;;4.55;;
51792;SDS011;37850;53.178;6.376;2023-12-20T07:42:06;32.55;;;3.97;;
51792;SDS011;37850;53.178;6.376;2023-12-20T07:44:33;25.80;;;4.55;;
51792;SDS011;37850;53.178;6.376;2023-12-20T07:46:59;32.80;;;4.15;;
51792;SDS011;37850;53.178;6.376;2023-12-20T07:49:26;36.83;;;4.22;;
51792;SDS011;37850;53.178;6.376;2023-12-20T07:51:51;26.60;;;4.95;;
51792;SDS011;37850;53.178;6.376;2023-12-20T07:54:17;32.95;;;4.93;;
51792;SDS011;37850;53.178;6.376;2023-12-20T07:56:43;28.95;;;4.05;;
51792;SDS011;37850;53.178;6.376;2023-12-20T07:59:09;25.20;;;3.80;;
51792;SDS011;37850;53.178;6.376;2023-12-20T08:01:35;27.35;;;4.13;;
51792;SDS011;37850;53.178;6.376;2023-12-20T08:04:01;27.77;;;4.60;;
51792;SDS011;37850;53.178;6.376;2023-12-20T08:06:26;26.00;;;4.15;;
51792;SDS011;37850;53.178;6.376;2023-12-20T08:08:52;34.40;;;4.40;;
51792;SDS011;37850;53.178;6.376;2023-12-20T08:11:18;32.00;;;4.68;;
51792;SDS011;37850;53.178;6.376;2023-12-20T08:13:45;29.92;;;3.83;;
51792;SDS011;37850;53.178;6.376;2023-12-20T08:16:10;26.98;;;4.28;;
51792;SDS011;37850;53.178;6.376;2023-12-20T08:18:38;30.95;;;4.10;;
51792;SDS011;37850;53.178;6.376;2023-12-20T08:21:04;30.17;;;4.22;;
51792;SDS011;37850;53.178;6.376;2023-12-20T08:23:33;25.15;;;4.03;;
51792;SDS011;37850;53.178;6.376;2023-12-20T08:26:03;26.83;;;3.78;;
51792;SDS011;37850;53.178;6.376;2023-12-20T08:28:32;29.88;;;3.95;;
51792;SDS011;37850;53.178;6.376;2023-12-20T08:31:01;24.80;;;3.58;;
51792;SDS011;37850;53.178;6.376;2023-12-20T08:33:27;23.08;;;3.25;;
51792;SDS011;37850;53.178;6.376;2023-12-20T08:35:53;26.20;;;3.83;;
51792;SDS011;37850;53.178;6.376;2023-12-20T08:38:19;19.05;;;3.17;;
51792;SDS011;37850;53.178;6.376;2023-12-20T08:40:45;16.35;;;3.05;;
51792;SDS011;37850;53.178;6.376;2023-12-20T08:43:11;26.02;;;3.45;;
51792;SDS011;37850;53.178;6.376;2023-12-20T08:45:37;24.17;;;2.67;;
51792;SDS011;37850;53.178;6.376;2023-12-20T08:48:04;25.08;;;3.70;;
51792;SDS011;37850;53.178;6.376;2023-12-20T08:50:30;21.77;;;2.97;;
51792;SDS011;37850;53.178;6.376;2023-12-20T08:52:56;27.30;;;3.67;;
51792;SDS011;37850;53.178;6.376;2023-12-20T08:55:22;27.45;;;3.58;;
51792;SDS011;37850;53.178;6.376;2023-12-20T08:57:48;16.13;;;2.55;;
51792;SDS011;37850;53.178;6.376;2023-12-20T09:00:14;17.75;;;3.10;;
51792;SDS011;37850;53.178;6.376;2023-12-20T09:02:40;22.58;;;3.75;;
51792;SDS011;37850;53.178;6.376;2023-12-20T09:05:06;13.23;;;2.33;;
51792;SDS011;37850;53.178;6.376;2023-12-20T09:07:32;10.90;;;1.90;;
51792;SDS011;37850;53.178;6.376;2023-12-20T09:09:58;15.02;;;2.20;;
51792;SDS011;37850;53.178;6.376;2023-12-20T09:12:24;13.48;;;2.08;;
51792;SDS011;37850;53.178;6.376;2023-12-20T09:14:51;12.20;;;1.25;;
51792;SDS011;37850;53.178;6.376;2023-12-20T09:17:17;7.10;;;1.55;;
51792;SDS011;37850;53.178;6.376;2023-12-20T09:19:44;11.82;;;1.10;;
51792;SDS011;37850;53.178;6.376;2023-12-20T09:22:10;11.65;;;1.50;;
51792;SDS011;37850;53.178;6.376;2023-12-20T09:24:36;11.07;;;1.33;;
51792;SDS011;37850;53.178;6.376;2023-12-20T09:27:01;11.07;;;1.33;;
51792;SDS011;37850;53.178;6.376;2023-12-20T09:29:27;12.57;;;1.23;;
51792;SDS011;37850;53.178;6.376;2023-12-20T09:31:54;8.77;;;1.05;;
51792;SDS011;37850;53.178;6.376;2023-12-20T09:34:19;9.35;;;1.40;;
51792;SDS011;37850;53.178;6.376;2023-12-20T09:36:46;11.60;;;1.58;;
51792;SDS011;37850;53.178;6.376;2023-12-20T09:39:16;8.93;;;1.38;;
51792;SDS011;37850;53.178;6.376;2023-12-20T09:42:00;7.13;;;1.45;;
51792;SDS011;37850;53.178;6.376;2023-12-20T09:44:27;11.10;;;1.35;;
51792;SDS011;37850;53.178;6.376;2023-12-20T09:46:54;8.77;;;1.10;;
51792;SDS011;37850;53.178;6.376;2023-12-20T09:49:21;9.95;;;1.48;;
51792;SDS011;37850;53.178;6.376;2023-12-20T09:51:47;13.70;;;1.52;;
51792;SDS011;37850;53.178;6.376;2023-12-20T09:54:18;13.85;;;1.50;;
51792;SDS011;37850;53.178;6.376;2023-12-20T09:56:44;13.00;;;1.50;;
51792;SDS011;37850;53.178;6.376;2023-12-20T09:59:10;9.93;;;1.58;;
51792;SDS011;37850;53.178;6.376;2023-12-20T10:01:36;20.05;;;2.50;;
51792;SDS011;37850;53.178;6.376;2023-12-20T10:04:05;14.82;;;1.73;;
51792;SDS011;37850;53.178;6.376;2023-12-20T10:06:37;11.75;;;1.77;;
51792;SDS011;37850;53.178;6.376;2023-12-20T10:09:06;14.35;;;1.92;;
51792;SDS011;37850;53.178;6.376;2023-12-20T10:11:34;13.10;;;2.38;;
51792;SDS011;37850;53.178;6.376;2023-12-20T10:14:02;19.70;;;3.08;;
51792;SDS011;37850;53.178;6.376;2023-12-20T10:16:28;10.23;;;1.80;;
51792;SDS011;37850;53.178;6.376;2023-12-20T10:18:54;14.98;;;1.88;;
51792;SDS011;37850;53.178;6.376;2023-12-20T10:21:21;14.48;;;2.33;;
51792;SDS011;37850;53.178;6.376;2023-12-20T10:23:48;8.35;;;1.70;;
51792;SDS011;37850;53.178;6.376;2023-12-20T10:26:24;19.90;;;2.25;;
51792;SDS011;37850;53.178;6.376;2023-12-20T10:28:53;17.95;;;1.70;;
51792;SDS011;37850;53.178;6.376;2023-12-20T10:31:26;19.50;;;1.98;;
51792;SDS011;37850;53.178;6.376;2023-12-20T10:33:56;13.68;;;1.67;;
51792;SDS011;37850;53.178;6.376;2023-12-20T10:36:23;15.13;;;1.90;;
51792;SDS011;37850;53.178;6.376;2023-12-20T10:38:51;19.27;;;2.17;;
51792;SDS011;37850;53.178;6.376;2023-12-20T10:41:24;16.20;;;2.03;;
51792;SDS011;37850;53.178;6.376;2023-12-20T10:43:58;12.98;;;1.73;;
51792;SDS011;37850;53.178;6.376;2023-12-20T10:46:28;18.48;;;2.50;;
51792;SDS011;37850;53.178;6.376;2023-12-20T10:48:55;19.33;;;1.98;;
51792;SDS011;37850;53.178;6.376;2023-12-20T10:51:21;13.05;;;2.10;;
51792;SDS011;37850;53.178;6.376;2023-12-20T10:53:49;15.30;;;2.03;;
51792;SDS011;37850;53.178;6.376;2023-12-20T10:56:17;19.40;;;2.22;;
51792;SDS011;37850;53.178;6.376;2023-12-20T10:58:43;19.85;;;2.00;;
51792;SDS011;37850;53.178;6.376;2023-12-20T11:01:14;13.80;;;2.08;;
51792;SDS011;37850;53.178;6.376;2023-12-20T11:03:48;16.88;;;2.55;;
51792;SDS011;37850;53.178;6.376;2023-12-20T11:06:19;14.65;;;2.08;;
51792;SDS011;37850;53.178;6.376;2023-12-20T11:09:03;13.55;;;2.38;;
51792;SDS011;37850;53.178;6.376;2023-12-20T11:12:13;20.27;;;2.17;;
51792;SDS011;37850;53.178;6.376;2023-12-20T11:14:47;18.90;;;2.00;;
51792;SDS011;37850;53.178;6.376;2023-12-20T11:17:17;17.48;;;2.10;;
51792;SDS011;37850;53.178;6.376;2023-12-20T11:20:03;18.67;;;2.35;;
51792;SDS011;37850;53.178;6.376;2023-12-20T11:22:32;13.60;;;2.10;;
51792;SDS011;37850;53.178;6.376;2023-12-20T11:25:05;18.02;;;2.00;;
51792;SDS011;37850;53.178;6.376;2023-12-20T11:27:33;19.08;;;2.10;;
51792;SDS011;37850;53.178;6.376;2023-12-20T11:30:00;12.35;;;1.83;;
51792;SDS011;37850;53.178;6.376;2023-12-20T11:32:31;20.73;;;2.28;;
51792;SDS011;37850;53.178;6.376;2023-12-20T11:35:00;16.33;;;2.28;;
51792;SDS011;37850;53.178;6.376;2023-12-20T11:37:41;17.00;;;2.28;;
51792;SDS011;37850;53.178;6.376;2023-12-20T11:40:08;19.77;;;2.63;;
51792;SDS011;37850;53.178;6.376;2023-12-20T11:42:38;17.35;;;2.90;;
51792;SDS011;37850;53.178;6.376;2023-12-20T11:45:05;17.88;;;3.75;;
51792;SDS011;37850;53.178;6.376;2023-12-20T11:47:34;18.80;;;3.78;;
51792;SDS011;37850;53.178;6.376;2023-12-20T11:50:01;25.40;;;2.70;;
51792;SDS011;37850;53.178;6.376;2023-12-20T11:52:29;18.35;;;2.13;;
51792;SDS011;37850;53.178;6.376;2023-12-20T11:54:57;25.33;;;3.88;;
51792;SDS011;37850;53.178;6.376;2023-12-20T11:57:22;20.35;;;2.47;;
51792;SDS011;37850;53.178;6.376;2023-12-20T11:59:48;15.15;;;2.58;;
51792;SDS011;37850;53.178;6.376;2023-12-20T12:02:15;19.80;;;2.28;;
51792;SDS011;37850;53.178;6.376;2023-12-20T12:04:41;16.63;;;3.03;;
51792;SDS011;37850;53.178;6.376;2023-12-20T12:07:07;18.13;;;2.53;;
51792;SDS011;37850;53.178;6.376;2023-12-20T12:09:32;15.10;;;2.67;;
51792;SDS011;37850;53.178;6.376;2023-12-20T12:11:59;15.70;;;1.88;;
51792;SDS011;37850;53.178;6.376;2023-12-20T12:14:25;15.70;;;2.30;;
51792;SDS011;37850;53.178;6.376;2023-12-20T12:16:51;14.00;;;2.20;;
51792;SDS011;37850;53.178;6.376;2023-12-20T12:19:21;13.85;;;1.90;;
51792;SDS011;37850;53.178;6.376;2023-12-20T12:21:48;20.42;;;2.38;;
51792;SDS011;37850;53.178;6.376;2023-12-20T12:24:19;15.35;;;2.20;;
51792;SDS011;37850;53.178;6.376;2023-12-20T12:26:51;15.50;;;1.67;;
51792;SDS011;37850;53.178;6.376;2023-12-20T12:29:17;14.25;;;2.53;;
51792;SDS011;37850;53.178;6.376;2023-12-20T12:31:43;17.35;;;2.10;;
51792;SDS011;37850;53.178;6.376;2023-12-20T12:34:09;13.75;;;2.50;;
51792;SDS011;37850;53.178;6.376;2023-12-20T12:36:35;15.45;;;2.38;;
51792;SDS011;37850;53.178;6.376;2023-12-20T12:39:03;14.80;;;2.30;;
51792;SDS011;37850;53.178;6.376;2023-12-20T12:41:30;14.30;;;2.30;;
51792;SDS011;37850;53.178;6.376;2023-12-20T12:43:55;14.88;;;2.10;;
51792;SDS011;37850;53.178;6.376;2023-12-20T12:46:21;14.70;;;1.98;;
51792;SDS011;37850;53.178;6.376;2023-12-20T12:48:47;15.77;;;2.28;;
51792;SDS011;37850;53.178;6.376;2023-12-20T12:51:14;17.92;;;2.60;;
51792;SDS011;37850;53.178;6.376;2023-12-20T12:53:40;16.85;;;2.00;;
51792;SDS011;37850;53.178;6.376;2023-12-20T12:56:06;16.75;;;2.15;;
51792;SDS011;37850;53.178;6.376;2023-12-20T12:58:32;17.13;;;2.78;;
51792;SDS011;37850;53.178;6.376;2023-12-20T13:00:58;21.45;;;3.17;;
51792;SDS011;37850;53.178;6.376;2023-12-20T13:03:23;13.70;;;2.35;;
51792;SDS011;37850;53.178;6.376;2023-12-20T13:05:49;21.27;;;3.38;;
51792;SDS011;37850;53.178;6.376;2023-12-20T13:08:18;19.23;;;2.75;;
51792;SDS011;37850;53.178;6.376;2023-12-20T13:10:44;19.98;;;3.22;;
51792;SDS011;37850;53.178;6.376;2023-12-20T13:13:10;15.40;;;2.38;;
51792;SDS011;37850;53.178;6.376;2023-12-20T13:15:35;15.60;;;2.00;;
51792;SDS011;37850;53.178;6.376;2023-12-20T13:18:01;16.75;;;2.22;;
51792;SDS011;37850;53.178;6.376;2023-12-20T13:20:27;17.00;;;2.10;;
51792;SDS011;37850;53.178;6.376;2023-12-20T13:22:53;9.63;;;1.77;;
51792;SDS011;37850;53.178;6.376;2023-12-20T13:25:19;14.35;;;2.35;;
51792;SDS011;37850;53.178;6.376;2023-12-20T13:27:45;18.60;;;1.95;;
51792;SDS011;37850;53.178;6.376;2023-12-20T13:30:11;9.80;;;1.63;;
51792;SDS011;37850;53.178;6.376;2023-12-20T13:32:37;8.57;;;1.70;;
51792;SDS011;37850;53.178;6.376;2023-12-20T13:35:03;12.68;;;1.70;;
51792;SDS011;37850;53.178;6.376;2023-12-20T13:37:29;16.40;;;1.95;;
51792;SDS011;37850;53.178;6.376;2023-12-20T13:39:55;12.27;;;2.25;;
51792;SDS011;37850;53.178;6.376;2023-12-20T13:42:21;12.73;;;2.00;;
51792;SDS011;37850;53.178;6.376;2023-12-20T13:44:47;8.68;;;1.70;;
51792;SDS011;37850;53.178;6.376;2023-12-20T13:47:13;9.50;;;1.25;;
51792;SDS011;37850;53.178;6.376;2023-12-20T13:49:39;8.27;;;1.33;;
51792;SDS011;37850;53.178;6.376;2023-12-20T13:52:05;13.20;;;1.77;;
51792;SDS011;37850;53.178;6.376;2023-12-20T13:54:31;9.43;;;1.30;;
51792;SDS011;37850;53.178;6.376;2023-12-20T13:56:56;10.88;;;1.95;;
51792;SDS011;37850;53.178;6.376;2023-12-20T13:59:23;12.88;;;1.75;;
51792;SDS011;37850;53.178;6.376;2023-12-20T14:01:48;13.25;;;2.10;;
51792;SDS011;37850;53.178;6.376;2023-12-20T14:04:15;12.23;;;2.00;;
51792;SDS011;37850;53.178;6.376;2023-12-20T14:06:41;14.55;;;2.05;;
51792;SDS011;37850;53.178;6.376;2023-12-20T14:09:07;11.98;;;2.03;;
51792;SDS011;37850;53.178;6.376;2023-12-20T14:11:33;12.07;;;1.45;;
51792;SDS011;37850;53.178;6.376;2023-12-20T14:13:59;9.32;;;1.67;;
51792;SDS011;37850;53.178;6.376;2023-12-20T14:16:26;13.48;;;1.30;;
51792;SDS011;37850;53.178;6.376;2023-12-20T14:18:52;9.93;;;1.60;;
51792;SDS011;37850;53.178;6.376;2023-12-20T14:21:22;8.45;;;1.38;;
51792;SDS011;37850;53.178;6.376;2023-12-20T14:23:49;12.60;;;1.55;;
51792;SDS011;37850;53.178;6.376;2023-12-20T14:26:14;9.27;;;1.50;;
51792;SDS011;37850;53.178;6.376;2023-12-20T14:28:41;7.72;;;1.40;;
51792;SDS011;37850;53.178;6.376;2023-12-20T14:31:07;9.63;;;1.27;;
51792;SDS011;37850;53.178;6.376;2023-12-20T14:33:35;12.40;;;1.83;;
51792;SDS011;37850;53.178;6.376;2023-12-20T14:36:03;9.05;;;1.42;;